KMFV/MFV METAR and TAF weather

Enter ICAO airport designator
Station Type Date Time Source
KMFV METAR 2019/06/18 04:35 UTC NOAA

KMFV 180435Z AUTO 18005KT 10SM CLR 22/21 A2999 RMK AO2 LTG DSNT SE T02240214


Station Type Date Time Source
KMFV Decoded METAR 2019/06/18 04:35 UTC NOAA

Melfa / Accomack Airport, VA, United States (KMFV) 37-39N 075-46W
Jun 18, 2019 - 12:35 AM EDT / 2019.06.18 0435 UTC
Wind: from the S (180 degrees) at 6 MPH (5 KT):0
Visibility: 10 mile(s):0
Sky conditions: clear
Weather: Lightning observed
Temperature: 72.3 F (22.4 C)
Dew Point: 70.5 F (21.4 C)
Relative Humidity: 94%
Pressure (altimeter): 29.99 in. Hg (1015 hPa)
ob: KMFV 180435Z AUTO 18005KT 10SM CLR 22/21 A2999 RMK AO2 LTG DSNT SE T02240214
cycle: 4

Station Type Date Time Source
KMFV TAF UTC NOAA

Error!

Example: see airport list